Time;durP1;ratioP1;P1;durP2;ratioP2;P2;SDS_P1;SDS_P2;PMS_P1;PMS_P2;Temp;Humidity;BMP_temperature;BMP_pressure;BME280_temperature;BME280_humidity;BME280_pressure;Samples;Min_cycle;Max_cycle;Signal;HPM_P1;HPM_P2
2022/08/19 00:00:14;;;;;;;9.73;8.80;;;;;;;;;;5088114;28;20020;-76
2022/08/19 00:02:40;;;;;;;9.32;8.52;;;;;;;;;;5072436;28;20099;-76
2022/08/19 00:05:06;;;;;;;10.27;9.15;;;;;;;;;;5071129;28;20028;-76
2022/08/19 00:07:32;;;;;;;10.10;9.20;;;;;;;;;;5070881;28;20482;-76
2022/08/19 00:09:58;;;;;;;9.23;8.43;;;;;;;;;;5071088;28;20206;-75
2022/08/19 00:12:24;;;;;;;9.98;9.02;;;;;;;;;;5070108;28;20082;-75
2022/08/19 00:14:50;;;;;;;9.00;8.10;;;;;;;;;;5072640;28;20032;-76
2022/08/19 00:17:16;;;;;;;10.57;9.35;;;;;;;;;;5091161;28;20107;-76
2022/08/19 00:19:42;;;;;;;9.82;8.93;;;;;;;;;;5090239;28;20020;-76
2022/08/19 00:22:08;;;;;;;9.85;8.85;;;;;;;;;;5090571;28;20020;-75
2022/08/19 00:24:35;;;;;;;10.43;9.43;;;;;;;;;;5090587;28;20343;-76
2022/08/19 00:27:01;;;;;;;10.18;9.18;;;;;;;;;;5091696;28;20048;-76
2022/08/19 00:29:28;;;;;;;9.43;8.63;;;;;;;;;;5091008;28;20378;-76
2022/08/19 00:31:57;;;;;;;9.43;8.57;;;;;;;;;;5086156;28;20039;-75
2022/08/19 00:34:24;;;;;;;9.70;8.80;;;;;;;;;;5086454;28;20048;-76
2022/08/19 00:36:50;;;;;;;9.18;8.32;;;;;;;;;;5071122;28;20024;-75
2022/08/19 00:39:16;;;;;;;9.77;8.80;;;;;;;;;;5074331;28;20374;-76
2022/08/19 00:41:44;;;;;;;9.27;8.48;;;;;;;;;;5075718;28;20046;-76
2022/08/19 00:44:19;;;;;;;9.57;8.68;;;;;;;;;;5074884;28;20025;-76
2022/08/19 00:46:47;;;;;;;10.23;9.23;;;;;;;;;;5087161;28;20090;-75
2022/08/19 00:49:21;;;;;;;10.93;9.93;;;;;;;;;;5096324;28;20205;-77
2022/08/19 00:51:49;;;;;;;10.73;9.73;;;;;;;;;;5095167;28;20501;-75
2022/08/19 00:54:15;;;;;;;11.07;10.07;;;;;;;;;;5094833;28;20347;-76
2022/08/19 00:56:42;;;;;;;10.85;9.85;;;;;;;;;;5086907;28;20020;-76
2022/08/19 00:59:09;;;;;;;9.60;8.70;;;;;;;;;;5088100;28;20032;-76
2022/08/19 01:01:39;;;;;;;10.73;9.75;;;;;;;;;;5082526;28;20054;-76
2022/08/19 01:04:05;;;;;;;11.63;10.43;;;;;;;;;;5085033;28;20025;-75
2022/08/19 01:06:32;;;;;;;11.98;10.85;;;;;;;;;;5083407;28;20020;-76
2022/08/19 01:08:58;;;;;;;12.50;11.30;;;;;;;;;;5081523;28;20016;-76
2022/08/19 01:11:25;;;;;;;12.05;11.00;;;;;;;;;;5084481;28;20029;-76
2022/08/19 01:13:52;;;;;;;13.65;12.27;;;;;;;;;;5084218;28;20024;-77
2022/08/19 01:16:19;;;;;;;12.88;11.68;;;;;;;;;;5081985;28;20024;-76
2022/08/19 01:18:45;;;;;;;13.20;11.90;;;;;;;;;;5083116;28;20103;-76
2022/08/19 01:21:14;;;;;;;12.75;11.63;;;;;;;;;;5079998;28;20035;-76
2022/08/19 01:23:43;;;;;;;12.98;11.75;;;;;;;;;;5074105;28;20039;-76
2022/08/19 01:26:17;;;;;;;12.90;11.70;;;;;;;;;;5078924;28;20437;-76
2022/08/19 01:28:44;;;;;;;13.88;12.48;;;;;;;;;;5075017;28;20059;-76
2022/08/19 01:31:12;;;;;;;13.30;12.10;;;;;;;;;;5072864;28;20068;-76
2022/08/19 01:33:38;;;;;;;14.73;13.23;;;;;;;;;;5073695;28;20355;-76
2022/08/19 01:36:09;;;;;;;13.40;12.10;;;;;;;;;;5073897;28;20044;-76
2022/08/19 01:38:37;;;;;;;13.57;12.27;;;;;;;;;;5074295;28;20081;-75
2022/08/19 01:41:03;;;;;;;13.70;12.50;;;;;;;;;;5081402;28;20020;-76
2022/08/19 01:43:29;;;;;;;13.70;12.40;;;;;;;;;;5093743;28;20114;-76
2022/08/19 01:45:55;;;;;;;12.93;11.73;;;;;;;;;;5093969;28;20446;-76
2022/08/19 01:48:22;;;;;;;12.82;11.63;;;;;;;;;;5095004;28;20024;-75
2022/08/19 01:50:48;;;;;;;12.70;11.55;;;;;;;;;;5093069;28;20389;-77
2022/08/19 01:53:14;;;;;;;13.30;11.90;;;;;;;;;;5093439;28;20077;-75
2022/08/19 01:55:41;;;;;;;13.18;11.98;;;;;;;;;;5089720;28;20017;-75
2022/08/19 01:58:12;;;;;;;12.18;11.07;;;;;;;;;;5094740;28;20099;-76
2022/08/19 02:00:38;;;;;;;12.55;11.35;;;;;;;;;;5092798;28;20024;-75
2022/08/19 02:03:06;;;;;;;13.63;12.35;;;;;;;;;;5093123;28;20103;-77
2022/08/19 02:05:32;;;;;;;13.23;12.02;;;;;;;;;;5093838;28;20115;-76
2022/08/19 02:07:58;;;;;;;11.75;10.65;;;;;;;;;;5094581;28;20024;-76
2022/08/19 02:10:24;;;;;;;12.60;11.40;;;;;;;;;;5091868;28;20054;-76
2022/08/19 02:12:50;;;;;;;11.73;10.63;;;;;;;;;;5093283;28;20465;-77
2022/08/19 02:15:18;;;;;;;13.18;11.98;;;;;;;;;;5093569;28;20065;-75
2022/08/19 02:17:45;;;;;;;13.30;12.05;;;;;;;;;;5094726;28;20031;-75
2022/08/19 02:20:12;;;;;;;14.25;12.95;;;;;;;;;;5093928;28;20052;-76
2022/08/19 02:22:41;;;;;;;14.57;13.17;;;;;;;;;;5083054;28;20396;-76
2022/08/19 02:25:07;;;;;;;14.15;12.88;;;;;;;;;;5083658;28;20256;-76
2022/08/19 02:27:33;;;;;;;13.68;12.48;;;;;;;;;;5085109;28;20494;-76
2022/08/19 02:30:00;;;;;;;14.50;13.18;;;;;;;;;;5082039;28;20035;-77
2022/08/19 02:32:27;;;;;;;14.75;13.35;;;;;;;;;;5082017;28;20123;-76
2022/08/19 02:34:53;;;;;;;14.05;12.75;;;;;;;;;;5084727;28;20024;-76
2022/08/19 02:40:04;;;;;;;14.02;12.63;;;;;;;;;;5083932;28;20035;-76
2022/08/19 02:42:31;;;;;;;13.75;12.45;;;;;;;;;;5081978;28;20032;-76
2022/08/19 02:44:57;;;;;;;13.65;12.35;;;;;;;;;;5081032;28;20021;-76
2022/08/19 02:47:23;;;;;;;13.18;11.90;;;;;;;;;;5077291;28;20028;-76
2022/08/19 02:49:51;;;;;;;12.45;11.30;;;;;;;;;;5072183;28;20040;-76
2022/08/19 02:52:17;;;;;;;13.15;11.95;;;;;;;;;;5085908;28;20051;-77
2022/08/19 02:54:44;;;;;;;14.00;12.55;;;;;;;;;;5092451;28;20032;-77
2022/08/19 02:57:10;;;;;;;15.02;13.68;;;;;;;;;;5091112;28;20105;-76
2022/08/19 02:59:36;;;;;;;15.48;12.13;;;;;;;;;;5092058;28;20086;-76
2022/08/19 03:02:02;;;;;;;13.35;12.02;;;;;;;;;;5080715;28;20027;-76
2022/08/19 03:04:29;;;;;;;13.07;11.77;;;;;;;;;;5080937;28;20016;-76
2022/08/19 03:06:55;;;;;;;12.70;11.57;;;;;;;;;;5081785;28;20104;-76
2022/08/19 03:09:21;;;;;;;11.52;10.52;;;;;;;;;;5080012;28;20479;-76
2022/08/19 03:11:47;;;;;;;11.48;10.48;;;;;;;;;;5081479;28;20837;-77
2022/08/19 03:14:14;;;;;;;12.35;11.23;;;;;;;;;;5080935;28;20017;-76
2022/08/19 03:16:45;;;;;;;11.40;10.40;;;;;;;;;;5083018;28;20012;-76
2022/08/19 03:19:11;;;;;;;11.60;10.60;;;;;;;;;;5081840;28;20027;-77
2022/08/19 03:21:37;;;;;;;12.38;11.27;;;;;;;;;;5079392;28;20035;-76
2022/08/19 03:24:05;;;;;;;12.25;11.10;;;;;;;;;;5081159;28;20020;-77
2022/08/19 03:26:31;;;;;;;11.55;10.45;;;;;;;;;;5084838;28;20093;-76
2022/08/19 03:28:58;;;;;;;13.18;11.80;;;;;;;;;;5093122;28;20024;-76
2022/08/19 03:31:25;;;;;;;13.75;12.23;;;;;;;;;;5089583;28;20035;-75
2022/08/19 03:33:52;;;;;;;12.68;11.57;;;;;;;;;;5092811;28;20024;-76
2022/08/19 03:36:20;;;;;;;13.07;11.73;;;;;;;;;;5090160;28;20432;-76
2022/08/19 03:38:48;;;;;;;12.93;11.65;;;;;;;;;;5091354;28;20039;-75
2022/08/19 03:41:15;;;;;;;13.32;12.02;;;;;;;;;;5092773;28;20100;-76
2022/08/19 03:43:42;;;;;;;12.80;11.60;;;;;;;;;;5091836;28;20450;-76
2022/08/19 03:46:09;;;;;;;12.75;11.48;;;;;;;;;;5087509;28;20028;-75
2022/08/19 03:48:36;;;;;;;13.55;12.32;;;;;;;;;;5071402;28;20482;-75
2022/08/19 03:51:02;;;;;;;14.43;13.05;;;;;;;;;;5071108;28;20036;-76
2022/08/19 03:53:29;;;;;;;13.32;12.02;;;;;;;;;;5072488;28;20029;-75
2022/08/19 03:55:56;;;;;;;14.85;13.43;;;;;;;;;;5070579;28;20239;-76
2022/08/19 03:58:22;;;;;;;14.75;13.45;;;;;;;;;;5072422;28;20031;-75
2022/08/19 04:00:49;;;;;;;16.65;14.15;;;;;;;;;;5075113;28;20032;-76
2022/08/19 04:03:15;;;;;;;16.98;15.27;;;;;;;;;;5081470;28;20024;-76
2022/08/19 04:05:41;;;;;;;18.80;16.85;;;;;;;;;;5071489;28;20033;-77
2022/08/19 04:08:07;;;;;;;14.60;13.20;;;;;;;;;;5071867;28;20367;-76
2022/08/19 04:10:37;;;;;;;18.45;16.67;;;;;;;;;;5071251;28;20062;-76
2022/08/19 04:13:05;;;;;;;17.88;16.10;;;;;;;;;;5070822;28;20029;-76
2022/08/19 04:15:35;;;;;;;17.70;15.90;;;;;;;;;;5072647;28;20020;-77
2022/08/19 04:18:01;;;;;;;17.63;15.55;;;;;;;;;;5070682;28;20032;-76
2022/08/19 04:20:27;;;;;;;19.65;17.63;;;;;;;;;;5071189;28;20086;-76
2022/08/19 04:22:53;;;;;;;19.38;17.40;;;;;;;;;;5071829;28;20035;-76
2022/08/19 04:25:19;;;;;;;21.67;19.40;;;;;;;;;;5072095;28;20028;-76
2022/08/19 04:27:46;;;;;;;22.35;19.27;;;;;;;;;;5076941;28;20048;-77
2022/08/19 04:30:13;;;;;;;22.70;19.83;;;;;;;;;;5080227;28;20025;-76
2022/08/19 04:32:39;;;;;;;26.40;20.50;;;;;;;;;;5077867;28;20081;-76
2022/08/19 04:35:05;;;;;;;16.80;15.10;;;;;;;;;;5078390;28;20032;-77
2022/08/19 04:37:34;;;;;;;21.98;19.63;;;;;;;;;;5078349;28;20354;-76
2022/08/19 04:42:45;;;;;;;22.08;19.10;;;;;;;;;;5080139;28;20043;-76
2022/08/19 04:45:13;;;;;;;22.90;20.30;;;;;;;;;;5079807;28;20025;-77
2022/08/19 04:47:40;;;;;;;26.40;21.25;;;;;;;;;;5080278;28;20017;-77
2022/08/19 04:50:07;;;;;;;22.95;20.45;;;;;;;;;;5081348;28;20054;-76
2022/08/19 04:52:33;;;;;;;24.25;20.67;;;;;;;;;;5079091;28;20055;-78
2022/08/19 04:55:00;;;;;;;25.13;21.17;;;;;;;;;;5076799;28;20051;-77
2022/08/19 04:57:26;;;;;;;24.35;21.65;;;;;;;;;;5089481;28;20045;-75
2022/08/19 04:59:55;;;;;;;25.30;21.45;;;;;;;;;;5087069;28;20534;-76
2022/08/19 05:02:25;;;;;;;23.42;20.92;;;;;;;;;;5088566;28;20024;-77
2022/08/19 05:04:59;;;;;;;19.65;17.55;;;;;;;;;;5089738;28;20428;-76
2022/08/19 05:07:25;;;;;;;22.10;19.50;;;;;;;;;;5091246;28;20052;-76
2022/08/19 05:09:51;;;;;;;22.75;19.70;;;;;;;;;;5090777;28;20082;-76
2022/08/19 05:12:17;;;;;;;24.77;20.58;;;;;;;;;;5089687;28;20044;-76
2022/08/19 05:14:45;;;;;;;25.30;20.83;;;;;;;;;;5087574;28;20032;-75
2022/08/19 05:17:11;;;;;;;28.23;22.33;;;;;;;;;;5084208;28;20028;-76
2022/08/19 05:22:37;;;;;;;24.75;20.00;;;;;;;;;;5085815;28;20425;-77
2022/08/19 05:25:05;;;;;;;24.77;20.58;;;;;;;;;;5088739;28;20020;-77
2022/08/19 05:27:31;;;;;;;26.90;22.58;;;;;;;;;;5083384;28;20348;-76
2022/08/19 05:29:58;;;;;;;29.02;23.15;;;;;;;;;;5088285;28;20457;-76
2022/08/19 05:32:23;;;;;;;29.95;24.33;;;;;;;;;;5078507;28;20036;-76
2022/08/19 05:34:49;;;;;;;29.80;23.98;;;;;;;;;;5073228;28;20489;-73
2022/08/19 05:37:16;;;;;;;28.88;21.63;;;;;;;;;;5092505;28;20393;-75
2022/08/19 05:39:42;;;;;;;28.52;23.33;;;;;;;;;;5094825;28;20059;-76
2022/08/19 05:42:09;;;;;;;28.17;23.48;;;;;;;;;;5084813;28;20023;-76
2022/08/19 05:44:37;;;;;;;31.08;23.98;;;;;;;;;;5074826;28;20467;-75
2022/08/19 05:47:04;;;;;;;28.15;23.73;;;;;;;;;;5087101;28;20024;-76
2022/08/19 05:49:31;;;;;;;20.00;16.52;;;;;;;;;;5090138;28;20470;-75
2022/08/19 05:51:59;;;;;;;27.10;22.45;;;;;;;;;;5079262;28;20040;-75
2022/08/19 05:54:25;;;;;;;26.77;21.13;;;;;;;;;;5083308;28;20111;-76
2022/08/19 05:56:52;;;;;;;30.25;22.95;;;;;;;;;;5080765;28;20028;-76
2022/08/19 05:59:21;;;;;;;24.67;20.45;;;;;;;;;;5081396;28;20016;-75
2022/08/19 06:01:50;;;;;;;26.10;20.58;;;;;;;;;;5079775;28;20301;-75
2022/08/19 06:04:17;;;;;;;25.27;19.88;;;;;;;;;;5085247;28;20386;-75
2022/08/19 06:06:43;;;;;;;27.23;21.33;;;;;;;;;;5086360;28;20027;-79
2022/08/19 06:09:10;;;;;;;21.55;18.30;;;;;;;;;;5083188;28;20029;-77
2022/08/19 06:11:36;;;;;;;21.88;18.52;;;;;;;;;;5077008;28;20482;-80
2022/08/19 06:14:03;;;;;;;20.45;17.42;;;;;;;;;;5078489;28;20027;-75
2022/08/19 06:16:29;;;;;;;19.92;17.30;;;;;;;;;;5084290;28;20382;-75
2022/08/19 06:18:56;;;;;;;21.55;17.20;;;;;;;;;;5082131;28;20099;-76
2022/08/19 06:21:23;;;;;;;20.35;17.38;;;;;;;;;;5077373;28;20023;-76
2022/08/19 06:23:51;;;;;;;21.92;17.73;;;;;;;;;;5078409;28;20043;-75
2022/08/19 06:26:18;;;;;;;22.75;18.30;;;;;;;;;;5081363;28;20051;-76
2022/08/19 06:28:46;;;;;;;19.67;16.85;;;;;;;;;;5076155;28;20021;-75
2022/08/19 06:31:13;;;;;;;24.05;17.67;;;;;;;;;;5079117;28;20056;-75
2022/08/19 06:33:39;;;;;;;21.48;17.65;;;;;;;;;;5077874;28;20028;-77
2022/08/19 06:36:05;;;;;;;19.85;16.95;;;;;;;;;;5075901;28;20036;-76
2022/08/19 06:38:33;;;;;;;18.38;16.17;;;;;;;;;;5082713;28;20111;-75
2022/08/19 06:41:03;;;;;;;20.83;17.08;;;;;;;;;;5074111;28;20023;-75
2022/08/19 06:43:29;;;;;;;20.42;16.65;;;;;;;;;;5074609;28;20082;-75
2022/08/19 06:45:55;;;;;;;19.05;15.45;;;;;;;;;;5081293;28;20482;-76
2022/08/19 06:48:21;;;;;;;13.88;11.93;;;;;;;;;;5074403;28;20497;-75
2022/08/19 06:50:49;;;;;;;16.73;13.75;;;;;;;;;;5078857;28;20028;-75
2022/08/19 06:53:17;;;;;;;14.15;12.57;;;;;;;;;;5082952;28;20025;-76
2022/08/19 06:55:43;;;;;;;21.60;16.58;;;;;;;;;;5073425;28;20032;-75
2022/08/19 06:58:09;;;;;;;15.13;12.68;;;;;;;;;;5072142;28;20024;-74
2022/08/19 07:00:36;;;;;;;13.70;11.65;;;;;;;;;;5079791;28;20021;-76
2022/08/19 07:03:02;;;;;;;24.23;17.73;;;;;;;;;;5081372;28;20774;-75
2022/08/19 07:05:28;;;;;;;23.50;18.60;;;;;;;;;;5090533;28;20024;-75
2022/08/19 07:07:54;;;;;;;21.80;16.38;;;;;;;;;;5084102;28;20016;-76
2022/08/19 07:10:20;;;;;;;20.58;17.77;;;;;;;;;;5091867;28;20080;-75
2022/08/19 07:12:47;;;;;;;19.17;15.77;;;;;;;;;;5079124;28;20490;-75
2022/08/19 07:15:13;;;;;;;25.65;17.88;;;;;;;;;;5073253;28;20024;-77
2022/08/19 07:17:39;;;;;;;21.50;16.52;;;;;;;;;;5076253;28;20020;-76
2022/08/19 07:20:07;;;;;;;21.80;17.20;;;;;;;;;;5079556;28;20161;-75
2022/08/19 07:22:33;;;;;;;21.02;16.85;;;;;;;;;;5082055;28;20069;-74
2022/08/19 07:24:59;;;;;;;20.85;16.00;;;;;;;;;;5081162;28;20021;-76
2022/08/19 07:27:25;;;;;;;19.73;15.38;;;;;;;;;;5083326;28;20140;-76
2022/08/19 07:29:52;;;;;;;19.48;15.38;;;;;;;;;;5083387;28;20753;-76
2022/08/19 07:32:18;;;;;;;23.52;18.38;;;;;;;;;;5080794;28;20098;-76
2022/08/19 07:34:45;;;;;;;22.42;17.63;;;;;;;;;;5082168;28;20454;-75
2022/08/19 07:37:12;;;;;;;21.20;16.63;;;;;;;;;;5080631;28;20127;-75
2022/08/19 07:39:38;;;;;;;20.33;17.13;;;;;;;;;;5081062;28;20438;-76
2022/08/19 07:42:08;;;;;;;18.83;15.55;;;;;;;;;;5081536;28;20107;-75
2022/08/19 07:44:35;;;;;;;21.42;15.60;;;;;;;;;;5074844;28;20462;-75
2022/08/19 07:47:01;;;;;;;17.50;13.65;;;;;;;;;;5070697;28;20043;-75
2022/08/19 07:49:27;;;;;;;17.70;13.65;;;;;;;;;;5090395;28;20020;-75
2022/08/19 07:51:55;;;;;;;17.60;14.13;;;;;;;;;;5091020;28;20543;-76
2022/08/19 07:54:23;;;;;;;19.55;16.17;;;;;;;;;;5092169;28;20497;-75
2022/08/19 07:56:50;;;;;;;19.70;15.85;;;;;;;;;;5092678;28;20028;-75
2022/08/19 07:59:17;;;;;;;20.30;14.95;;;;;;;;;;5090635;28;20028;-75
2022/08/19 08:01:43;;;;;;;16.85;13.52;;;;;;;;;;5091318;28;20035;-76
2022/08/19 08:09:40;;;;;;;18.73;15.38;;;;;;;;;;5086651;28;20074;-75
2022/08/19 08:12:10;;;;;;;16.20;13.93;;;;;;;;;;5086889;28;20115;-75
2022/08/19 08:14:38;;;;;;;16.75;14.20;;;;;;;;;;5070968;28;20035;-75
2022/08/19 08:17:04;;;;;;;;;;;;;;;;;;5071515;28;20612;-75
2022/08/19 08:19:30;;;;;;;17.63;15.00;;;;;;;;;;5088061;28;19961;-77
2022/08/19 08:21:58;;;;;;;16.70;13.80;;;;;;;;;;5090597;28;20028;-75
2022/08/19 08:24:24;;;;;;;14.35;12.85;;;;;;;;;;5091711;28;20028;-75
2022/08/19 08:26:50;;;;;;;16.75;14.07;;;;;;;;;;5089524;28;20071;-75
2022/08/19 08:29:16;;;;;;;17.27;13.50;;;;;;;;;;5075950;28;20036;-75
2022/08/19 08:31:43;;;;;;;17.50;14.68;;;;;;;;;;5077517;28;20468;-74
2022/08/19 08:34:10;;;;;;;12.18;10.52;;;;;;;;;;5077012;28;20108;-76
2022/08/19 08:36:41;;;;;;;20.58;16.02;;;;;;;;;;5082682;28;20469;-76
2022/08/19 08:39:07;;;;;;;14.73;12.15;;;;;;;;;;5076653;28;20017;-76
2022/08/19 08:41:33;;;;;;;14.77;12.13;;;;;;;;;;5077980;28;20036;-75
2022/08/19 08:43:59;;;;;;;12.95;10.68;;;;;;;;;;5075430;28;20025;-76
2022/08/19 08:46:26;;;;;;;16.63;11.90;;;;;;;;;;5076546;28;20538;-76
2022/08/19 08:48:58;;;;;;;14.05;11.02;;;;;;;;;;5070768;28;20044;-75
2022/08/19 08:51:28;;;;;;;15.80;11.80;;;;;;;;;;5081105;28;20051;-76
2022/08/19 08:53:54;;;;;;;11.20;9.35;;;;;;;;;;5080383;28;20424;-74
2022/08/19 08:56:20;;;;;;;12.93;10.40;;;;;;;;;;5078070;28;20024;-75
2022/08/19 08:58:55;;;;;;;16.42;11.88;;;;;;;;;;5075783;28;20533;-76
2022/08/19 09:01:21;;;;;;;9.85;8.68;;;;;;;;;;5080097;28;20366;-75
2022/08/19 09:03:47;;;;;;;14.63;11.73;;;;;;;;;;5085413;28;20020;-76
2022/08/19 09:06:32;;;;;;;15.45;10.80;;;;;;;;;;5082979;28;20417;-76
2022/08/19 09:09:12;;;;;;;10.05;8.70;;;;;;;;;;5080637;28;20028;-75
2022/08/19 09:11:58;;;;;;;12.20;10.20;;;;;;;;;;5082456;28;20359;-77
2022/08/19 09:14:41;;;;;;;9.32;8.43;;;;;;;;;;5078124;28;20020;-75
2022/08/19 09:17:07;;;;;;;11.63;9.98;;;;;;;;;;5080810;28;20020;-75
2022/08/19 09:19:33;;;;;;;13.60;11.73;;;;;;;;;;5082482;28;20054;-76
2022/08/19 09:22:00;;;;;;;14.25;11.73;;;;;;;;;;5081865;28;20016;-78
2022/08/19 09:24:26;;;;;;;11.65;10.32;;;;;;;;;;5078219;28;20033;-74
2022/08/19 09:26:52;;;;;;;9.88;8.57;;;;;;;;;;5084669;28;20126;-76
2022/08/19 09:29:18;;;;;;;14.93;12.35;;;;;;;;;;5082357;28;20127;-75
2022/08/19 09:31:44;;;;;;;14.32;11.90;;;;;;;;;;5077962;28;20046;-75
2022/08/19 09:34:10;;;;;;;11.88;10.18;;;;;;;;;;5090259;28;20599;-76
2022/08/19 09:36:38;;;;;;;17.83;15.55;;;;;;;;;;5082957;28;20053;-76
2022/08/19 09:39:05;;;;;;;17.35;14.57;;;;;;;;;;5083389;28;20161;-75
2022/08/19 09:41:31;;;;;;;17.10;13.82;;;;;;;;;;5082963;28;20039;-76
2022/08/19 09:43:58;;;;;;;18.55;14.77;;;;;;;;;;5082094;28;20027;-76
2022/08/19 09:46:25;;;;;;;16.27;13.05;;;;;;;;;;5078951;28;20054;-75
2022/08/19 09:48:52;;;;;;;16.38;12.70;;;;;;;;;;5086827;28;20438;-74
2022/08/19 09:51:22;;;;;;;12.20;10.90;;;;;;;;;;5085483;28;20044;-76
2022/08/19 09:53:50;;;;;;;17.45;13.23;;;;;;;;;;5087159;28;20480;-75
2022/08/19 09:56:16;;;;;;;19.17;15.57;;;;;;;;;;5094652;28;20030;-75
2022/08/19 09:58:42;;;;;;;16.90;13.57;;;;;;;;;;5076876;28;20024;-76
2022/08/19 10:01:09;;;;;;;19.73;15.63;;;;;;;;;;5073361;28;20086;-75
2022/08/19 10:03:35;;;;;;;22.65;16.65;;;;;;;;;;5080897;28;20119;-76
2022/08/19 10:06:02;;;;;;;20.20;15.23;;;;;;;;;;5094712;28;20021;-77
2022/08/19 10:08:34;;;;;;;16.30;13.27;;;;;;;;;;5089646;28;20034;-75
2022/08/19 10:11:01;;;;;;;16.77;12.00;;;;;;;;;;5077664;28;20036;-76
2022/08/19 10:13:28;;;;;;;17.25;13.07;;;;;;;;;;5081624;28;20020;-76
2022/08/19 10:15:55;;;;;;;16.30;13.32;;;;;;;;;;5083995;28;20098;-76
2022/08/19 10:18:22;;;;;;;21.90;15.80;;;;;;;;;;5082837;28;20016;-76
2022/08/19 10:20:49;;;;;;;16.60;12.35;;;;;;;;;;5083102;28;20048;-76
2022/08/19 10:23:15;;;;;;;14.35;11.90;;;;;;;;;;5081372;28;20430;-76
2022/08/19 10:25:42;;;;;;;16.75;12.73;;;;;;;;;;5086344;28;20016;-76
2022/08/19 10:28:08;;;;;;;14.30;11.13;;;;;;;;;;5082078;28;20363;-75
2022/08/19 10:30:36;;;;;;;14.07;10.57;;;;;;;;;;5082035;28;20138;-76
2022/08/19 10:33:02;;;;;;;13.48;11.23;;;;;;;;;;5084983;28;20135;-76
2022/08/19 10:35:29;;;;;;;19.85;15.07;;;;;;;;;;5075966;28;20092;-76
2022/08/19 10:37:58;;;;;;;15.77;11.82;;;;;;;;;;5072010;28;20374;-76
2022/08/19 10:40:25;;;;;;;14.93;11.90;;;;;;;;;;5088882;28;20463;-76
2022/08/19 10:42:51;;;;;;;16.08;13.35;;;;;;;;;;5093812;28;20035;-75
2022/08/19 10:45:17;;;;;;;15.15;12.00;;;;;;;;;;5092123;28;20024;-75
2022/08/19 10:47:43;;;;;;;17.00;13.35;;;;;;;;;;5087390;28;20455;-75
2022/08/19 10:52:53;;;;;;;22.90;18.10;;;;;;;;;;5080448;28;20080;-76
2022/08/19 10:58:10;;;;;;;22.38;17.35;;;;;;;;;;5083040;28;20101;-77
2022/08/19 11:00:36;;;;;;;20.60;15.95;;;;;;;;;;5076921;28;20119;-80
2022/08/19 11:03:02;;;;;;;15.43;11.80;;;;;;;;;;5078751;28;20028;-76
2022/08/19 11:05:30;;;;;;;18.17;15.27;;;;;;;;;;5071338;28;20024;-80
2022/08/19 11:07:56;;;;;;;13.20;10.63;;;;;;;;;;5073257;28;20490;-75
2022/08/19 11:10:23;;;;;;;24.75;18.15;;;;;;;;;;5074039;28;20043;-79
2022/08/19 11:12:52;;;;;;;15.63;12.23;;;;;;;;;;5079085;28;20029;-76
2022/08/19 11:15:18;;;;;;;14.57;10.48;;;;;;;;;;5082561;28;20025;-74
2022/08/19 11:17:44;;;;;;;15.70;11.43;;;;;;;;;;5077635;28;20024;-75
2022/08/19 11:20:12;;;;;;;14.27;12.52;;;;;;;;;;5080615;28;20418;-76
2022/08/19 11:22:38;;;;;;;19.40;15.07;;;;;;;;;;5079326;28;20054;-75
2022/08/19 11:25:04;;;;;;;14.70;13.00;;;;;;;;;;5077310;28;20032;-75
2022/08/19 11:27:30;;;;;;;15.48;12.70;;;;;;;;;;5077176;28;20040;-79
2022/08/19 11:29:56;;;;;;;19.05;14.60;;;;;;;;;;5076024;28;20016;-76
2022/08/19 11:32:22;;;;;;;21.60;16.98;;;;;;;;;;5077317;28;20487;-76
2022/08/19 11:34:48;;;;;;;18.88;15.60;;;;;;;;;;5074069;28;20481;-77
2022/08/19 11:37:15;;;;;;;16.83;13.70;;;;;;;;;;5083264;28;20024;-76
2022/08/19 11:39:41;;;;;;;15.75;13.02;;;;;;;;;;5081124;28;20054;-76
2022/08/19 11:44:52;;;;;;;17.17;13.95;;;;;;;;;;5082195;28;20042;-80
2022/08/19 11:47:18;;;;;;;20.77;14.18;;;;;;;;;;5080339;28;20512;-78
2022/08/19 11:49:45;;;;;;;15.25;12.60;;;;;;;;;;5081826;28;20024;-77
2022/08/19 11:52:11;;;;;;;15.32;11.88;;;;;;;;;;5081958;28;20040;-81
2022/08/19 11:54:37;;;;;;;14.82;11.25;;;;;;;;;;5079890;28;20025;-80
2022/08/19 11:57:04;;;;;;;12.35;9.88;;;;;;;;;;5077553;28;20029;-77
2022/08/19 11:59:30;;;;;;;13.50;10.63;;;;;;;;;;5084987;28;20167;-76
2022/08/19 12:01:57;;;;;;;12.57;9.63;;;;;;;;;;5074919;28;20043;-77
2022/08/19 12:04:23;;;;;;;14.93;9.32;;;;;;;;;;5076504;28;20538;-77
2022/08/19 12:06:49;;;;;;;10.98;8.95;;;;;;;;;;5078223;28;20031;-76
2022/08/19 12:09:17;;;;;;;11.55;8.18;;;;;;;;;;5078626;28;20035;-77
2022/08/19 12:11:43;;;;;;;10.43;8.77;;;;;;;;;;5078265;28;20478;-76
2022/08/19 12:14:13;;;;;;;10.02;8.57;;;;;;;;;;5072759;28;20028;-82
2022/08/19 12:16:40;;;;;;;12.68;8.27;;;;;;;;;;5076815;28;20020;-79
2022/08/19 12:19:07;;;;;;;9.77;7.40;;;;;;;;;;5080585;28;20039;-77
2022/08/19 12:21:34;;;;;;;7.90;6.60;;;;;;;;;;5078838;28;20487;-81
2022/08/19 12:24:01;;;;;;;8.32;5.97;;;;;;;;;;5079169;28;20028;-81
2022/08/19 12:26:28;;;;;;;5.72;4.35;;;;;;;;;;5075322;28;20040;-75
2022/08/19 12:28:54;;;;;;;7.18;4.70;;;;;;;;;;5079646;28;20098;-78
2022/08/19 12:31:21;;;;;;;5.00;4.30;;;;;;;;;;5077497;28;20032;-82
2022/08/19 12:33:47;;;;;;;5.72;4.55;;;;;;;;;;5079474;28;20028;-81
2022/08/19 12:36:15;;;;;;;5.63;4.30;;;;;;;;;;5079367;28;20020;-82
2022/08/19 12:38:41;;;;;;;7.75;4.43;;;;;;;;;;5076625;28;20032;-82
2022/08/19 12:41:09;;;;;;;5.30;4.05;;;;;;;;;;5079843;28;20056;-82
2022/08/19 12:43:35;;;;;;;6.30;4.00;;;;;;;;;;5079623;28;20069;-80
2022/08/19 12:46:03;;;;;;;4.60;3.45;;;;;;;;;;5075261;28;20032;-81
2022/08/19 12:48:29;;;;;;;5.28;3.30;;;;;;;;;;5076111;28;20112;-80
2022/08/19 12:50:56;;;;;;;4.18;3.42;;;;;;;;;;5088724;28;20110;-79
2022/08/19 12:53:22;;;;;;;3.80;3.30;;;;;;;;;;5097044;28;20130;-78
2022/08/19 12:55:48;;;;;;;4.80;2.88;;;;;;;;;;5095852;28;20459;-81
2022/08/19 12:58:14;;;;;;;6.15;3.80;;;;;;;;;;5096962;28;20375;-82
2022/08/19 13:00:40;;;;;;;5.07;3.03;;;;;;;;;;5093722;28;20020;-82
2022/08/19 13:03:06;;;;;;;3.13;2.72;;;;;;;;;;5083925;28;20430;-81
2022/08/19 13:05:35;;;;;;;3.20;2.83;;;;;;;;;;5088214;28;20473;-78
2022/08/19 13:08:01;;;;;;;3.15;2.55;;;;;;;;;;5079999;28;20028;-83
2022/08/19 13:10:35;;;;;;;3.85;2.55;;;;;;;;;;5080632;28;20024;-82
2022/08/19 13:13:05;;;;;;;3.10;2.80;;;;;;;;;;5082400;28;20033;-80
2022/08/19 13:15:33;;;;;;;4.05;2.67;;;;;;;;;;5081613;28;20020;-82
2022/08/19 13:17:59;;;;;;;2.70;2.50;;;;;;;;;;5078343;28;20044;-81
2022/08/19 13:20:25;;;;;;;4.38;2.67;;;;;;;;;;5080117;28;20102;-83
2022/08/19 13:22:51;;;;;;;3.58;2.60;;;;;;;;;;5083832;28;20016;-83
2022/08/19 13:25:19;;;;;;;3.33;2.55;;;;;;;;;;5082716;28;20021;-82
2022/08/19 13:27:46;;;;;;;2.10;1.90;;;;;;;;;;5084916;28;20040;-83
2022/08/19 13:33:14;;;;;;;2.63;2.30;;;;;;;;;;5082782;28;20500;-79
2022/08/19 13:35:43;;;;;;;3.90;2.33;;;;;;;;;;5093314;28;20431;-82
2022/08/19 13:38:10;;;;;;;4.78;2.58;;;;;;;;;;5097232;28;20028;-76
2022/08/19 13:40:36;;;;;;;3.80;2.53;;;;;;;;;;5095615;28;20031;-79
2022/08/19 13:43:04;;;;;;;3.60;2.78;;;;;;;;;;5090137;28;20119;-76
2022/08/19 13:45:33;;;;;;;3.00;2.05;;;;;;;;;;5079270;28;20024;-77
2022/08/19 13:47:59;;;;;;;3.20;2.35;;;;;;;;;;5076305;28;20017;-77
2022/08/19 13:50:27;;;;;;;3.75;1.65;;;;;;;;;;5074224;28;20052;-78
2022/08/19 13:52:53;;;;;;;5.30;1.87;;;;;;;;;;5079992;28;20127;-79
2022/08/19 13:55:19;;;;;;;1.98;1.55;;;;;;;;;;5076047;28;20034;-82
2022/08/19 13:57:46;;;;;;;1.83;1.52;;;;;;;;;;5083251;28;20389;-82
2022/08/19 14:00:15;;;;;;;2.35;1.80;;;;;;;;;;5083390;28;20031;-79
2022/08/19 14:02:41;;;;;;;2.28;1.60;;;;;;;;;;5082298;28;20024;-77
2022/08/19 14:05:08;;;;;;;3.20;2.00;;;;;;;;;;5079674;28;20031;-79
2022/08/19 14:07:34;;;;;;;2.35;2.00;;;;;;;;;;5078587;28;20035;-78
2022/08/19 14:10:00;;;;;;;3.78;2.10;;;;;;;;;;5077207;28;20032;-78
2022/08/19 14:12:26;;;;;;;2.00;1.70;;;;;;;;;;5077873;28;20033;-77
2022/08/19 14:14:52;;;;;;;2.08;1.98;;;;;;;;;;5073320;28;20029;-76
2022/08/19 14:17:18;;;;;;;1.88;1.70;;;;;;;;;;5079986;28;20028;-80
2022/08/19 14:19:44;;;;;;;2.33;2.03;;;;;;;;;;5077147;28;20024;-77
2022/08/19 14:22:10;;;;;;;3.10;1.73;;;;;;;;;;5080639;28;20433;-81
2022/08/19 14:24:39;;;;;;;2.53;1.48;;;;;;;;;;5073922;28;20032;-79
2022/08/19 14:27:05;;;;;;;2.20;2.00;;;;;;;;;;5080475;28;20079;-78
2022/08/19 14:29:31;;;;;;;2.83;2.00;;;;;;;;;;5079268;28;20069;-81
2022/08/19 14:31:58;;;;;;;1.70;1.60;;;;;;;;;;5079088;28;20028;-77
2022/08/19 14:34:24;;;;;;;4.13;2.20;;;;;;;;;;5078536;28;20024;-78
2022/08/19 14:36:50;;;;;;;1.88;1.77;;;;;;;;;;5081442;28;20048;-79
2022/08/19 14:39:16;;;;;;;1.92;1.77;;;;;;;;;;5082005;28;20135;-76
2022/08/19 14:41:42;;;;;;;2.10;1.90;;;;;;;;;;5082630;28;20031;-82
2022/08/19 14:44:12;;;;;;;3.15;1.90;;;;;;;;;;5081237;28;20377;-78
2022/08/19 14:46:38;;;;;;;2.15;1.67;;;;;;;;;;5082340;28;20054;-77